createdAt,value
2023-02-11T00:01:48.285Z,20.13
2023-02-11T00:04:14.783Z,15.95
2023-02-11T00:06:41.479Z,18.38
2023-02-11T00:09:08.439Z,20.77
2023-02-11T00:11:34.981Z,16.42
2023-02-11T00:14:05.882Z,14.33
2023-02-11T00:16:32.725Z,15.90
2023-02-11T00:19:00.665Z,18.77
2023-02-11T00:21:27.926Z,16.80
2023-02-11T00:23:57.064Z,17.27
2023-02-11T00:26:26.471Z,11.40
2023-02-11T00:28:53.418Z,17.30
2023-02-11T00:31:21.880Z,13.48
2023-02-11T00:33:48.838Z,16.23
2023-02-11T00:36:21.520Z,15.55
2023-02-11T00:38:49.879Z,19.90
2023-02-11T00:41:17.469Z,15.27
2023-02-11T00:43:44.190Z,18.05
2023-02-11T00:46:11.726Z,17.52
2023-02-11T00:48:38.263Z,16.38
2023-02-11T00:51:05.459Z,11.97
2023-02-11T00:53:33.158Z,24.60
2023-02-11T00:56:01.002Z,27.20
2023-02-11T00:58:28.482Z,15.50
2023-02-11T01:00:55.579Z,21.17
2023-02-11T01:03:22.451Z,19.90
2023-02-11T01:05:49.304Z,18.15
2023-02-11T01:08:16.095Z,11.30
2023-02-11T01:10:43.934Z,20.70
2023-02-11T01:13:11.036Z,14.23
2023-02-11T01:15:37.838Z,16.73
2023-02-11T01:18:05.521Z,14.60
2023-02-11T01:20:32.125Z,14.10
2023-02-11T01:22:58.698Z,22.13
2023-02-11T01:25:25.120Z,22.63
2023-02-11T01:27:51.607Z,16.93
2023-02-11T01:30:18.062Z,15.43
2023-02-11T01:32:44.538Z,13.15
2023-02-11T01:35:11.056Z,16.98
2023-02-11T01:37:37.535Z,14.57
2023-02-11T01:40:11.818Z,9.97
2023-02-11T01:42:38.590Z,16.02
2023-02-11T01:45:42.345Z,16.88
2023-02-11T01:48:13.122Z,14.43
2023-02-11T01:50:41.748Z,21.42
2023-02-11T01:53:28.622Z,17.20
2023-02-11T01:56:15.337Z,10.68
2023-02-11T01:58:45.333Z,18.77
2023-02-11T02:01:17.753Z,19.42
2023-02-11T02:03:47.119Z,21.95
2023-02-11T02:06:19.524Z,20.30
2023-02-11T02:08:52.913Z,15.57
2023-02-11T02:11:19.735Z,14.43
2023-02-11T02:13:46.477Z,15.93
2023-02-11T02:16:15.782Z,24.80
2023-02-11T02:18:59.938Z,15.30
2023-02-11T02:22:14.084Z,19.98
2023-02-11T02:25:12.598Z,18.02
2023-02-11T02:27:58.812Z,21.17
2023-02-11T02:31:06.611Z,16.38
2023-02-11T02:33:53.749Z,15.47
2023-02-11T02:36:42.542Z,19.48
2023-02-11T02:39:14.416Z,17.80
2023-02-11T02:41:42.236Z,21.73
2023-02-11T02:44:08.978Z,17.55
2023-02-11T02:46:36.580Z,11.07
2023-02-11T02:49:03.655Z,18.58
2023-02-11T02:51:51.807Z,11.75
2023-02-11T02:54:30.631Z,21.73
2023-02-11T02:57:25.373Z,26.75
2023-02-11T02:59:51.799Z,15.97
2023-02-11T03:02:26.773Z,13.80
2023-02-11T03:05:17.986Z,15.98
2023-02-11T03:08:02.731Z,18.85
2023-02-11T03:10:34.103Z,23.88
2023-02-11T03:13:03.134Z,17.73
2023-02-11T03:15:34.886Z,20.05
2023-02-11T03:18:03.933Z,25.77
2023-02-11T03:20:36.418Z,23.63
2023-02-11T03:23:16.399Z,20.05
2023-02-11T03:25:49.688Z,21.33
2023-02-11T03:28:22.133Z,24.52
2023-02-11T03:31:09.774Z,20.30
2023-02-11T03:33:55.748Z,18.90
2023-02-11T03:36:36.120Z,17.67
2023-02-11T03:39:05.262Z,15.60
2023-02-11T03:41:34.642Z,15.13
2023-02-11T03:44:02.290Z,22.40
2023-02-11T03:46:33.517Z,24.15
2023-02-11T03:49:09.631Z,16.30
2023-02-11T03:51:37.196Z,25.80
2023-02-11T03:54:09.000Z,18.63
2023-02-11T03:56:41.788Z,21.70
2023-02-11T03:59:08.468Z,18.58
2023-02-11T04:01:35.380Z,19.25
2023-02-11T04:04:01.965Z,18.67
2023-02-11T04:06:28.475Z,19.52
2023-02-11T04:08:54.963Z,22.10
2023-02-11T04:11:21.378Z,21.67
2023-02-11T04:13:47.927Z,26.58
2023-02-11T04:16:14.535Z,15.80
2023-02-11T04:18:40.989Z,16.15
2023-02-11T04:21:07.574Z,22.40
2023-02-11T04:23:34.123Z,26.35
2023-02-11T04:26:00.602Z,26.60
2023-02-11T04:28:29.438Z,20.63
2023-02-11T04:30:56.463Z,18.02
2023-02-11T04:33:23.484Z,20.40
2023-02-11T04:35:50.397Z,30.48
2023-02-11T04:38:17.181Z,20.05
2023-02-11T04:40:43.690Z,23.57
2023-02-11T04:43:10.268Z,23.08
2023-02-11T04:45:36.937Z,23.45
2023-02-11T04:48:03.743Z,26.95
2023-02-11T04:50:30.717Z,32.50
2023-02-11T04:52:57.209Z,24.13
2023-02-11T04:55:24.402Z,23.63
2023-02-11T04:57:50.852Z,24.58
2023-02-11T05:00:17.516Z,30.42
2023-02-11T05:02:43.997Z,19.05
2023-02-11T05:05:10.582Z,21.77
2023-02-11T05:07:37.091Z,23.73
2023-02-11T05:10:04.427Z,21.55
2023-02-11T05:12:30.851Z,20.00
2023-02-11T05:14:57.305Z,27.67
2023-02-11T05:17:23.762Z,22.03
2023-02-11T05:19:50.200Z,22.63
2023-02-11T05:22:16.716Z,28.00
2023-02-11T05:24:43.219Z,30.35
2023-02-11T05:27:09.696Z,29.88
2023-02-11T05:29:36.256Z,21.57
2023-02-11T05:32:02.778Z,27.23
2023-02-11T05:34:29.325Z,22.48
2023-02-11T05:37:02.437Z,21.88
2023-02-11T05:39:29.042Z,27.10
2023-02-11T05:41:55.630Z,28.20
2023-02-11T05:44:22.071Z,31.07
2023-02-11T05:46:49.366Z,29.90
2023-02-11T05:49:17.498Z,28.30
2023-02-11T05:51:44.064Z,25.15
2023-02-11T05:54:10.697Z,27.80
2023-02-11T05:56:37.190Z,28.50
2023-02-11T05:59:03.798Z,22.58
2023-02-11T06:01:30.316Z,32.10
2023-02-11T06:03:57.083Z,31.10
2023-02-11T06:06:24.030Z,23.80
2023-02-11T06:08:50.502Z,25.03
2023-02-11T06:11:17.927Z,31.77
2023-02-11T06:13:44.463Z,31.60
2023-02-11T06:16:11.026Z,32.75
2023-02-11T06:18:37.526Z,41.30
2023-02-11T06:21:08.453Z,28.03
2023-02-11T06:23:34.953Z,27.77
2023-02-11T06:26:03.245Z,32.45
2023-02-11T06:28:31.423Z,31.75
2023-02-11T06:30:58.804Z,28.83
2023-02-11T06:33:25.347Z,29.17
2023-02-11T06:35:52.195Z,30.25
2023-02-11T06:38:18.883Z,30.15
2023-02-11T06:40:49.430Z,27.80
2023-02-11T06:43:16.851Z,34.63
2023-02-11T06:45:43.648Z,28.50
2023-02-11T06:48:10.427Z,35.13
2023-02-11T06:50:36.933Z,33.45
2023-02-11T06:53:03.375Z,34.63
2023-02-11T06:55:29.874Z,35.13
2023-02-11T06:57:56.359Z,43.17
2023-02-11T07:00:23.018Z,32.50
2023-02-11T07:02:49.495Z,34.85
2023-02-11T07:05:16.039Z,35.28
2023-02-11T07:07:42.709Z,28.58
2023-02-11T07:10:09.408Z,36.53
2023-02-11T07:12:35.919Z,32.65
2023-02-11T07:15:02.659Z,34.95
2023-02-11T07:17:29.147Z,37.83
2023-02-11T07:19:55.885Z,40.78
2023-02-11T07:22:22.402Z,34.97
2023-02-11T07:24:48.899Z,37.42
2023-02-11T07:27:15.474Z,29.23
2023-02-11T07:29:42.681Z,38.15
2023-02-11T07:32:09.348Z,40.13
2023-02-11T07:34:36.049Z,40.57
2023-02-11T07:37:03.065Z,36.45
2023-02-11T07:39:29.689Z,37.42
2023-02-11T07:41:56.904Z,36.83
2023-02-11T07:44:23.450Z,35.35
2023-02-11T07:46:50.105Z,31.43
2023-02-11T07:49:16.660Z,37.08
2023-02-11T07:51:43.182Z,26.65
2023-02-11T07:54:10.449Z,31.13
2023-02-11T07:56:36.985Z,42.25
2023-02-11T07:59:04.265Z,31.77
2023-02-11T08:01:31.547Z,38.88
2023-02-11T08:03:59.580Z,36.83
2023-02-11T08:06:29.158Z,32.88
2023-02-11T08:08:55.747Z,40.97
2023-02-11T08:11:28.165Z,34.07
2023-02-11T08:13:56.013Z,38.95
2023-02-11T08:16:28.406Z,45.00
2023-02-11T08:18:57.692Z,32.75
2023-02-11T08:21:24.899Z,34.90
2023-02-11T08:23:51.916Z,49.20
2023-02-11T08:26:21.608Z,32.42
2023-02-11T08:28:50.145Z,30.98
2023-02-11T08:31:19.809Z,32.63
2023-02-11T08:33:46.469Z,30.73
2023-02-11T08:36:15.726Z,33.83
2023-02-11T08:38:43.093Z,36.53
2023-02-11T08:41:10.179Z,37.65
2023-02-11T08:43:37.075Z,29.98
2023-02-11T08:46:04.000Z,36.70
2023-02-11T08:48:30.653Z,35.87
2023-02-11T08:50:57.541Z,33.25
2023-02-11T08:53:24.222Z,33.88
2023-02-11T08:55:55.269Z,38.63
2023-02-11T08:58:22.459Z,37.70
2023-02-11T09:00:50.505Z,37.53
2023-02-11T09:03:17.662Z,32.05
2023-02-11T09:05:45.876Z,39.08
2023-02-11T09:08:12.911Z,34.75
2023-02-11T09:10:39.995Z,38.20
2023-02-11T09:13:07.031Z,31.73
2023-02-11T09:15:33.636Z,34.33
2023-02-11T09:18:00.119Z,39.67
2023-02-11T09:20:27.167Z,47.08
2023-02-11T09:22:54.864Z,36.22
2023-02-11T09:25:21.382Z,38.33
2023-02-11T09:27:47.930Z,40.33
2023-02-11T09:30:14.458Z,36.70
2023-02-11T09:32:40.955Z,31.65
2023-02-11T09:35:07.707Z,34.67
2023-02-11T09:37:36.949Z,35.53
2023-02-11T09:40:04.190Z,40.08
2023-02-11T09:42:39.915Z,42.83
2023-02-11T09:45:15.913Z,36.08
2023-02-11T09:48:04.361Z,31.95
2023-02-11T09:50:39.255Z,33.27
2023-02-11T09:53:30.900Z,35.15
2023-02-11T09:56:00.840Z,36.00
2023-02-11T09:58:33.984Z,42.10
2023-02-11T10:01:18.753Z,38.03
2023-02-11T10:04:27.855Z,40.47
2023-02-11T10:07:08.095Z,39.53
2023-02-11T10:10:01.398Z,37.22
2023-02-11T10:12:52.999Z,42.58
2023-02-11T10:15:46.703Z,36.58
2023-02-11T10:18:38.824Z,39.60
2023-02-11T10:21:31.918Z,33.60
2023-02-11T10:24:03.392Z,47.53
2023-02-11T10:26:31.668Z,34.63
2023-02-11T10:29:04.756Z,37.25
2023-02-11T10:31:45.006Z,30.07
2023-02-11T10:34:13.859Z,33.70
2023-02-11T10:36:43.308Z,42.00
2023-02-11T10:39:16.443Z,33.33
2023-02-11T10:41:55.338Z,45.15
2023-02-11T10:44:33.467Z,31.30
2023-02-11T10:47:05.148Z,31.45
2023-02-11T10:49:40.622Z,29.30
2023-02-11T10:52:24.250Z,28.45
2023-02-11T10:54:56.623Z,29.13
2023-02-11T10:57:28.177Z,26.83
2023-02-11T11:00:00.626Z,31.08
2023-02-11T11:02:34.574Z,28.35
2023-02-11T11:05:14.784Z,33.17
2023-02-11T11:07:53.690Z,35.28
2023-02-11T11:10:43.546Z,29.63
2023-02-11T11:13:30.429Z,25.02
2023-02-11T11:16:13.390Z,34.13
2023-02-11T11:18:41.438Z,29.73
2023-02-11T11:21:13.569Z,26.27
2023-02-11T11:23:46.660Z,33.33
2023-02-11T11:26:15.579Z,27.88
2023-02-11T11:28:51.304Z,29.27
2023-02-11T11:31:23.162Z,26.77
2023-02-11T11:33:53.568Z,23.90
2023-02-11T11:36:22.793Z,27.73
2023-02-11T11:38:53.118Z,24.65
2023-02-11T11:41:28.028Z,21.90
2023-02-11T11:43:54.427Z,25.25
2023-02-11T11:46:31.026Z,23.95
2023-02-11T11:49:07.037Z,20.17
2023-02-11T11:51:35.002Z,24.55
2023-02-11T11:54:07.929Z,25.00
2023-02-11T11:56:40.297Z,23.77
2023-02-11T11:59:14.062Z,22.00
2023-02-11T12:02:01.951Z,21.17
2023-02-11T12:04:55.942Z,20.50
2023-02-11T12:07:40.885Z,25.92
2023-02-11T12:10:28.213Z,27.20
2023-02-11T12:13:25.519Z,22.70
2023-02-11T12:16:17.648Z,18.00
2023-02-11T12:18:50.811Z,22.92
2023-02-11T12:21:20.128Z,21.95
2023-02-11T12:23:53.481Z,23.92
2023-02-11T12:26:23.355Z,18.95
2023-02-11T12:29:01.909Z,22.13
2023-02-11T12:31:40.623Z,22.95
2023-02-11T12:34:25.400Z,20.40
2023-02-11T12:37:15.400Z,23.90
2023-02-11T12:39:47.916Z,22.35
2023-02-11T12:43:08.878Z,23.80
2023-02-11T12:45:42.322Z,23.65
2023-02-11T12:48:25.410Z,19.23
2023-02-11T12:51:05.922Z,22.73
2023-02-11T12:53:38.205Z,23.08
2023-02-11T12:56:15.948Z,21.93
2023-02-11T12:58:45.669Z,20.02
2023-02-11T13:01:18.104Z,18.75
2023-02-11T13:03:55.111Z,19.80
2023-02-11T13:06:29.324Z,19.50
2023-02-11T13:09:05.936Z,17.77
2023-02-11T13:11:38.729Z,17.33
2023-02-11T13:14:17.158Z,18.10
2023-02-11T13:16:49.760Z,16.65
2023-02-11T13:19:26.622Z,14.73
2023-02-11T13:22:12.855Z,16.00
2023-02-11T13:24:44.349Z,15.20
2023-02-11T13:27:36.885Z,15.70
2023-02-11T13:30:18.429Z,13.52
2023-02-11T13:33:06.657Z,12.38
2023-02-11T13:35:39.487Z,16.23
2023-02-11T13:38:27.569Z,16.35
2023-02-11T13:41:27.747Z,17.83
2023-02-11T13:44:22.351Z,16.63
2023-02-11T13:46:54.348Z,14.75
2023-02-11T13:49:42.558Z,14.00
2023-02-11T13:52:24.008Z,17.55
2023-02-11T13:54:52.775Z,14.63
2023-02-11T13:57:29.265Z,13.38
2023-02-11T14:00:20.415Z,12.90
2023-02-11T14:03:25.480Z,15.27
2023-02-11T14:06:25.758Z,10.77
2023-02-11T14:09:01.176Z,10.10
2023-02-11T14:11:33.659Z,11.07
2023-02-11T14:14:16.089Z,11.45
2023-02-11T14:17:07.692Z,11.20
2023-02-11T14:19:35.608Z,11.80
2023-02-11T14:22:06.472Z,11.23
2023-02-11T14:24:32.858Z,10.20
2023-02-11T14:27:05.554Z,9.68
2023-02-11T14:29:42.089Z,10.23
2023-02-11T14:32:18.771Z,13.32
2023-02-11T14:34:57.134Z,9.57
2023-02-11T14:37:50.378Z,9.88
2023-02-11T14:40:29.869Z,10.15
2023-02-11T14:43:01.793Z,9.00
2023-02-11T14:45:31.040Z,9.40
2023-02-11T14:48:08.196Z,10.05
2023-02-11T14:50:59.116Z,10.30
2023-02-11T14:53:28.188Z,9.52
2023-02-11T14:55:55.711Z,9.23
2023-02-11T14:58:27.776Z,9.45
2023-02-11T15:00:55.741Z,9.95
2023-02-11T15:03:27.897Z,8.90
2023-02-11T15:05:58.371Z,10.05
2023-02-11T15:08:25.637Z,10.83
2023-02-11T15:10:55.074Z,9.95
2023-02-11T15:13:27.181Z,12.60
2023-02-11T15:15:57.756Z,10.55
2023-02-11T15:18:33.292Z,9.02
2023-02-11T15:21:00.038Z,8.90
2023-02-11T15:23:29.649Z,9.80
2023-02-11T15:25:56.629Z,10.10
2023-02-11T15:28:29.617Z,9.95
2023-02-11T15:31:18.264Z,10.98
2023-02-11T15:33:45.313Z,9.27
2023-02-11T15:36:13.679Z,11.65
2023-02-11T15:38:41.275Z,9.10
2023-02-11T15:41:08.692Z,8.60
2023-02-11T15:43:51.030Z,10.35
2023-02-11T15:46:20.578Z,10.90
2023-02-11T15:48:53.205Z,10.07
2023-02-11T15:51:29.501Z,10.15
2023-02-11T15:53:58.913Z,9.77
2023-02-11T15:56:43.444Z,10.80
2023-02-11T15:59:18.320Z,12.50
2023-02-11T16:01:45.936Z,10.05
2023-02-11T16:04:25.137Z,12.23
2023-02-11T16:06:53.233Z,12.25
2023-02-11T16:09:19.680Z,12.38
2023-02-11T16:11:46.107Z,11.13
2023-02-11T16:14:42.174Z,11.35
2023-02-11T16:17:22.375Z,11.48
2023-02-11T16:19:51.746Z,11.70
2023-02-11T16:22:24.875Z,10.48
2023-02-11T16:24:55.216Z,13.20
2023-02-11T16:27:28.487Z,11.48
2023-02-11T16:29:55.284Z,12.10
2023-02-11T16:32:24.715Z,11.00
2023-02-11T16:34:53.837Z,10.45
2023-02-11T16:37:20.744Z,11.10
2023-02-11T16:39:47.233Z,10.38
2023-02-11T16:42:13.740Z,13.13
2023-02-11T16:44:40.237Z,9.82
2023-02-11T16:47:14.627Z,11.43
2023-02-11T16:49:42.567Z,12.33
2023-02-11T16:52:14.539Z,15.43
2023-02-11T16:54:41.012Z,11.77
2023-02-11T16:57:21.915Z,12.65
2023-02-11T16:59:49.140Z,11.40
2023-02-11T17:02:23.635Z,11.73
2023-02-11T17:04:52.379Z,12.20
2023-02-11T17:07:19.048Z,11.15
2023-02-11T17:09:45.553Z,15.23
2023-02-11T17:12:12.067Z,11.23
2023-02-11T17:14:38.563Z,11.20
2023-02-11T17:17:05.102Z,12.23
2023-02-11T17:19:31.549Z,16.35
2023-02-11T17:21:58.049Z,12.07
2023-02-11T17:24:24.574Z,12.73
2023-02-11T17:26:51.245Z,13.33
2023-02-11T17:29:20.610Z,10.35
2023-02-11T17:31:47.246Z,11.23
2023-02-11T17:34:14.134Z,11.45
2023-02-11T17:36:41.428Z,16.48
2023-02-11T17:39:08.775Z,11.60
2023-02-11T17:41:37.242Z,11.38
2023-02-11T17:44:04.428Z,13.98
2023-02-11T17:46:32.153Z,14.77
2023-02-11T17:48:59.563Z,25.38
2023-02-11T17:51:43.861Z,13.30
2023-02-11T17:54:13.876Z,11.52
2023-02-11T17:56:41.646Z,13.23
2023-02-11T17:59:10.323Z,13.10
2023-02-11T18:01:38.781Z,14.80
2023-02-11T18:04:06.616Z,11.57
2023-02-11T18:06:35.980Z,13.30
2023-02-11T18:09:04.384Z,11.00
2023-02-11T18:11:33.621Z,12.80
2023-02-11T18:14:01.179Z,16.60
2023-02-11T18:16:29.384Z,11.93
2023-02-11T18:18:57.699Z,11.18
2023-02-11T18:21:24.611Z,11.52
2023-02-11T18:23:51.669Z,12.85
2023-02-11T18:26:20.958Z,13.57
2023-02-11T18:28:47.558Z,12.90
2023-02-11T18:31:14.813Z,13.32
2023-02-11T18:33:42.222Z,14.40
2023-02-11T18:36:11.907Z,16.77
2023-02-11T18:38:39.113Z,12.82
2023-02-11T18:41:07.233Z,14.27
2023-02-11T18:43:34.431Z,14.25
2023-02-11T18:46:02.777Z,13.95
2023-02-11T18:48:29.332Z,14.52
2023-02-11T18:50:56.096Z,13.95
2023-02-11T18:53:23.104Z,14.53
2023-02-11T18:55:49.901Z,14.25
2023-02-11T18:58:16.590Z,20.50
2023-02-11T19:00:49.251Z,15.80
2023-02-11T19:03:15.896Z,18.70
2023-02-11T19:05:46.764Z,14.30
2023-02-11T19:08:13.612Z,15.13
2023-02-11T19:10:41.829Z,16.48
2023-02-11T19:13:09.014Z,20.88
2023-02-11T19:15:41.236Z,14.45
2023-02-11T19:18:07.879Z,16.43
2023-02-11T19:20:34.401Z,14.98
2023-02-11T19:23:00.980Z,14.73
2023-02-11T19:25:27.546Z,17.17
2023-02-11T19:27:54.056Z,15.10
2023-02-11T19:30:20.657Z,16.03
2023-02-11T19:32:52.362Z,14.57
2023-02-11T19:35:19.693Z,16.58
2023-02-11T19:37:46.190Z,15.98
2023-02-11T19:40:15.393Z,14.98
2023-02-11T19:42:42.420Z,15.90
2023-02-11T19:45:09.484Z,15.93
2023-02-11T19:47:36.450Z,17.65
2023-02-11T19:50:05.127Z,15.13
2023-02-11T19:52:31.684Z,15.48
2023-02-11T19:54:58.161Z,15.43
2023-02-11T19:57:24.635Z,16.27
2023-02-11T19:59:53.214Z,17.00
2023-02-11T20:02:19.790Z,18.38
2023-02-11T20:04:46.424Z,17.48
2023-02-11T20:07:13.158Z,16.37
2023-02-11T20:09:41.019Z,15.10
2023-02-11T20:12:07.587Z,16.20
2023-02-11T20:14:34.084Z,15.32
2023-02-11T20:17:00.541Z,14.80
2023-02-11T20:19:28.072Z,17.03
2023-02-11T20:21:55.822Z,15.88
2023-02-11T20:24:23.898Z,18.65
2023-02-11T20:26:55.145Z,18.23
2023-02-11T20:29:22.484Z,16.30
2023-02-11T20:31:50.280Z,16.37
2023-02-11T20:34:17.826Z,18.73
2023-02-11T20:36:51.539Z,19.83
2023-02-11T20:39:19.035Z,18.75
2023-02-11T20:41:46.215Z,14.88
2023-02-11T20:44:13.661Z,20.83
2023-02-11T20:46:43.622Z,16.08
2023-02-11T20:49:12.269Z,15.25
2023-02-11T20:51:39.313Z,15.55
2023-02-11T20:54:06.708Z,14.93
2023-02-11T20:56:36.847Z,15.73
2023-02-11T20:59:04.410Z,16.40
2023-02-11T21:01:53.591Z,16.65
2023-02-11T21:04:25.543Z,15.90
2023-02-11T21:06:55.818Z,19.00
2023-02-11T21:09:29.189Z,16.70
2023-02-11T21:11:56.530Z,17.67
2023-02-11T21:14:25.040Z,15.25
2023-02-11T21:16:52.400Z,23.92
2023-02-11T21:19:19.027Z,18.50
2023-02-11T21:21:45.604Z,18.23
2023-02-11T21:24:12.513Z,16.25
2023-02-11T21:26:39.565Z,16.83
2023-02-11T21:29:07.973Z,14.75
2023-02-11T21:31:36.073Z,18.00
2023-02-11T21:34:02.878Z,16.77
2023-02-11T21:36:29.932Z,14.15
2023-02-11T21:38:56.729Z,19.98
2023-02-11T21:41:24.747Z,17.92
2023-02-11T21:43:51.886Z,16.55
2023-02-11T21:46:19.415Z,15.27
2023-02-11T21:48:46.613Z,17.98
2023-02-11T21:51:18.801Z,15.45
2023-02-11T21:53:45.501Z,15.85
2023-02-11T21:56:17.921Z,19.65
2023-02-11T21:58:45.715Z,16.37
2023-02-11T22:01:15.939Z,18.55
2023-02-11T22:03:42.918Z,14.77
2023-02-11T22:06:12.335Z,16.05
2023-02-11T22:08:39.329Z,20.45
2023-02-11T22:11:07.780Z,19.23
2023-02-11T22:13:34.766Z,16.23
2023-02-11T22:16:04.198Z,18.23
2023-02-11T22:18:30.919Z,17.17
2023-02-11T22:21:03.271Z,19.75
2023-02-11T22:23:30.163Z,19.27
2023-02-11T22:25:57.585Z,18.63
2023-02-11T22:28:25.924Z,18.17
2023-02-11T22:30:57.605Z,22.05
2023-02-11T22:33:25.559Z,19.60
2023-02-11T22:35:59.488Z,18.57
2023-02-11T22:38:26.704Z,20.40
2023-02-11T22:40:53.502Z,20.45
2023-02-11T22:43:20.103Z,22.77
2023-02-11T22:45:46.719Z,20.80
2023-02-11T22:48:13.258Z,22.00
2023-02-11T22:50:39.744Z,21.95
2023-02-11T22:53:06.250Z,21.40
2023-02-11T22:55:36.779Z,21.23
2023-02-11T22:58:03.583Z,22.23
2023-02-11T23:00:31.584Z,23.67
2023-02-11T23:02:58.079Z,23.50
2023-02-11T23:05:24.595Z,20.25
2023-02-11T23:07:51.059Z,20.92
2023-02-11T23:10:17.658Z,24.00
2023-02-11T23:12:44.117Z,23.57
2023-02-11T23:15:10.683Z,19.05
2023-02-11T23:17:37.159Z,21.23
2023-02-11T23:20:03.905Z,20.98
2023-02-11T23:22:30.443Z,18.50
2023-02-11T23:24:56.914Z,24.00
2023-02-11T23:27:23.420Z,18.85
2023-02-11T23:29:49.992Z,20.58
2023-02-11T23:32:16.491Z,19.95
2023-02-11T23:34:42.973Z,18.80
2023-02-11T23:37:09.543Z,21.67
2023-02-11T23:39:36.155Z,21.70
2023-02-11T23:42:02.710Z,25.80
2023-02-11T23:44:29.341Z,21.60
2023-02-11T23:46:55.779Z,23.30
2023-02-11T23:49:22.259Z,21.30
2023-02-11T23:51:48.799Z,21.77
2023-02-11T23:54:15.545Z,22.80
2023-02-11T23:56:44.668Z,26.17
2023-02-11T23:59:11.693Z,23.33
